createdAt,value
2022-12-25T00:03:11.607Z,3.40
2022-12-25T00:08:18.003Z,3.03
2022-12-25T00:13:25.533Z,3.23
2022-12-25T00:18:30.968Z,3.77
2022-12-25T00:23:38.784Z,3.53
2022-12-25T00:28:46.617Z,3.03
2022-12-25T00:33:52.789Z,3.80
2022-12-25T00:38:57.745Z,4.00
2022-12-25T00:44:07.015Z,4.70
2022-12-25T00:49:12.166Z,4.10
2022-12-25T00:54:17.104Z,4.47
2022-12-25T00:59:25.223Z,3.80
2022-12-25T01:04:30.246Z,2.77
2022-12-25T01:09:48.603Z,3.67
2022-12-25T01:14:56.247Z,4.07
2022-12-25T01:20:01.323Z,3.57
2022-12-25T01:25:07.243Z,3.60
2022-12-25T01:30:15.646Z,4.00
2022-12-25T01:35:20.749Z,3.70
2022-12-25T01:40:28.320Z,3.60
2022-12-25T01:45:48.614Z,3.73
2022-12-25T01:50:58.597Z,4.10
2022-12-25T01:56:09.033Z,3.87
2022-12-25T02:01:17.834Z,3.40
2022-12-25T02:06:24.881Z,3.90
2022-12-25T02:11:42.539Z,3.77
2022-12-25T02:16:57.714Z,3.30
2022-12-25T02:22:15.468Z,3.00
2022-12-25T02:27:31.196Z,4.47
2022-12-25T02:32:46.931Z,4.10
2022-12-25T02:37:58.059Z,4.00
2022-12-25T02:43:18.910Z,3.80
2022-12-25T02:48:43.517Z,4.47
2022-12-25T02:54:02.611Z,4.10
2022-12-25T02:59:21.341Z,5.07
2022-12-25T03:04:43.006Z,4.40
2022-12-25T03:10:06.442Z,3.73
2022-12-25T03:15:27.067Z,4.00
2022-12-25T03:20:49.222Z,3.77
2022-12-25T03:26:06.568Z,4.20
2022-12-25T03:31:18.204Z,3.50
2022-12-25T03:36:36.245Z,3.70
2022-12-25T03:41:59.202Z,3.97
2022-12-25T03:47:34.225Z,4.10
2022-12-25T03:52:55.514Z,3.90
2022-12-25T03:58:14.251Z,4.57
2022-12-25T04:03:31.731Z,3.50
2022-12-25T04:08:51.568Z,3.63
2022-12-25T04:14:09.096Z,3.60
2022-12-25T04:19:26.473Z,3.97
2022-12-25T04:24:47.635Z,3.87
2022-12-25T04:30:04.918Z,4.20
2022-12-25T04:35:22.836Z,4.67
2022-12-25T04:40:30.384Z,4.40
2022-12-25T04:45:35.276Z,4.00
2022-12-25T04:50:40.189Z,3.73
2022-12-25T04:55:47.796Z,4.10
2022-12-25T05:00:53.073Z,3.63
2022-12-25T05:05:57.949Z,4.57
2022-12-25T05:11:08.996Z,4.63
2022-12-25T05:16:17.571Z,3.43
2022-12-25T05:21:23.297Z,4.73
2022-12-25T05:26:30.975Z,4.27
2022-12-25T05:31:38.080Z,5.17
2022-12-25T05:36:43.039Z,4.23
2022-12-25T05:41:50.620Z,5.63
2022-12-25T05:46:55.635Z,4.17
2022-12-25T05:52:00.556Z,4.20
2022-12-25T05:57:08.158Z,4.17
2022-12-25T06:02:13.180Z,4.10
2022-12-25T06:07:20.082Z,4.57
2022-12-25T06:12:27.777Z,4.00
2022-12-25T06:17:32.673Z,4.37
2022-12-25T06:22:38.101Z,4.80
2022-12-25T06:27:45.722Z,4.83
2022-12-25T06:32:50.674Z,4.57
2022-12-25T06:37:56.721Z,4.90
2022-12-25T06:43:04.311Z,5.93
2022-12-25T06:48:09.309Z,5.43
2022-12-25T06:53:14.331Z,7.73
2022-12-25T06:58:23.884Z,6.40
2022-12-25T07:03:30.959Z,5.90
2022-12-25T07:08:35.937Z,7.00
2022-12-25T07:13:43.883Z,6.97
2022-12-25T07:18:50.981Z,6.10
2022-12-25T07:23:58.043Z,5.47
2022-12-25T07:29:05.522Z,6.57
2022-12-25T07:34:11.681Z,6.50
2022-12-25T07:39:19.098Z,6.47
2022-12-25T07:44:26.672Z,5.80
2022-12-25T07:49:31.666Z,5.97
2022-12-25T07:54:37.333Z,7.53
2022-12-25T07:59:45.166Z,8.97
2022-12-25T08:04:50.031Z,9.50
2022-12-25T08:09:54.925Z,9.87
2022-12-25T08:15:02.448Z,8.27
2022-12-25T08:20:08.813Z,8.47
2022-12-25T08:25:13.686Z,10.10
2022-12-25T08:30:23.391Z,9.40
2022-12-25T08:35:28.926Z,10.67
2022-12-25T08:40:33.896Z,9.80
2022-12-25T08:45:41.737Z,9.87
2022-12-25T08:50:53.329Z,9.17
2022-12-25T08:56:04.541Z,10.37
2022-12-25T09:01:15.483Z,12.63
2022-12-25T09:06:22.393Z,9.57
2022-12-25T09:11:29.405Z,11.27
2022-12-25T09:16:40.217Z,13.00
2022-12-25T09:21:57.116Z,12.93
2022-12-25T09:27:02.266Z,12.93
2022-12-25T09:32:11.560Z,13.00
2022-12-25T09:37:17.138Z,11.37
2022-12-25T09:42:28.702Z,10.50
2022-12-25T09:47:41.383Z,9.97
2022-12-25T09:52:52.404Z,9.33
2022-12-25T09:58:01.002Z,9.07
2022-12-25T10:03:22.111Z,8.83
2022-12-25T10:08:40.216Z,10.87
2022-12-25T10:14:09.740Z,10.40
2022-12-25T10:19:38.679Z,9.47
2022-12-25T10:24:48.496Z,7.70
2022-12-25T10:29:57.594Z,8.67
2022-12-25T10:35:05.531Z,7.93
2022-12-25T10:40:31.658Z,8.67
2022-12-25T10:45:47.760Z,8.00
2022-12-25T10:50:55.996Z,7.97
2022-12-25T10:56:03.470Z,7.83
2022-12-25T11:01:11.008Z,8.10
2022-12-25T11:06:29.674Z,7.57
2022-12-25T11:11:44.211Z,8.17
2022-12-25T11:16:49.821Z,7.37
2022-12-25T11:21:59.803Z,6.87
2022-12-25T11:27:08.569Z,6.20
2022-12-25T11:32:22.490Z,5.90
2022-12-25T11:37:36.933Z,6.17
2022-12-25T11:42:45.591Z,6.07
2022-12-25T11:47:54.940Z,6.13
2022-12-25T11:53:06.161Z,6.53
2022-12-25T11:58:21.114Z,6.00
2022-12-25T12:03:31.531Z,6.90
2022-12-25T12:08:39.767Z,6.30
2022-12-25T12:14:00.474Z,5.97
2022-12-25T12:19:14.083Z,5.63
2022-12-25T12:24:25.384Z,6.50
2022-12-25T12:29:32.744Z,6.30
2022-12-25T12:34:44.445Z,5.17
2022-12-25T12:39:55.411Z,6.00
2022-12-25T12:45:10.381Z,5.90
2022-12-25T12:50:38.047Z,5.97
2022-12-25T12:55:45.854Z,5.47
2022-12-25T13:00:58.642Z,6.33
2022-12-25T13:06:11.825Z,6.07
2022-12-25T13:11:23.106Z,7.23
2022-12-25T13:16:32.153Z,6.57
2022-12-25T13:21:38.586Z,8.10
2022-12-25T13:26:46.392Z,7.97
2022-12-25T13:31:51.647Z,7.60
2022-12-25T13:36:59.007Z,8.57
2022-12-25T13:42:10.271Z,7.40
2022-12-25T13:47:25.539Z,7.87
2022-12-25T13:52:37.224Z,7.67
2022-12-25T13:57:49.250Z,7.27
2022-12-25T14:02:55.251Z,7.57
2022-12-25T14:08:02.022Z,8.23
2022-12-25T14:13:14.239Z,6.63
2022-12-25T14:18:20.801Z,6.43
2022-12-25T14:23:26.308Z,7.60
2022-12-25T14:28:36.604Z,7.07
2022-12-25T14:33:43.016Z,7.77
2022-12-25T14:38:58.036Z,8.10
2022-12-25T14:44:08.360Z,7.70
2022-12-25T14:49:26.872Z,8.40
2022-12-25T14:54:31.811Z,7.60
2022-12-25T14:59:40.812Z,9.00
2022-12-25T15:04:49.410Z,9.57
2022-12-25T15:10:18.417Z,9.80
2022-12-25T15:15:22.013Z,11.57
2022-12-25T15:20:35.444Z,10.40
2022-12-25T15:25:40.414Z,12.10
2022-12-25T15:30:50.219Z,11.03
2022-12-25T15:35:57.385Z,10.07
2022-12-25T15:41:02.817Z,10.40
2022-12-25T15:46:13.091Z,10.87
2022-12-25T15:51:18.039Z,10.60
2022-12-25T15:56:23.771Z,12.17
2022-12-25T16:01:31.592Z,11.93
2022-12-25T16:06:36.786Z,11.30
2022-12-25T16:11:42.444Z,12.17
2022-12-25T16:16:50.188Z,10.70
2022-12-25T16:21:57.006Z,11.33
2022-12-25T16:27:04.149Z,11.37
2022-12-25T16:32:14.899Z,11.13
2022-12-25T16:37:20.071Z,12.20
2022-12-25T16:42:25.299Z,12.43
2022-12-25T16:47:33.836Z,12.23
2022-12-25T16:52:41.033Z,10.30
2022-12-25T16:57:47.777Z,11.20
2022-12-25T17:02:56.990Z,11.03
2022-12-25T17:08:02.251Z,11.03
2022-12-25T17:13:07.514Z,11.07
2022-12-25T17:18:15.300Z,11.67
2022-12-25T17:23:20.254Z,10.10
2022-12-25T17:28:27.577Z,10.90
2022-12-25T17:33:38.259Z,10.70
2022-12-25T17:38:43.505Z,10.93
2022-12-25T17:43:49.702Z,11.70
2022-12-25T17:48:58.969Z,12.40
2022-12-25T17:54:05.786Z,12.93
2022-12-25T17:59:12.194Z,11.90
2022-12-25T18:04:20.132Z,11.43
2022-12-25T18:09:25.099Z,10.93
2022-12-25T18:14:30.163Z,10.80
2022-12-25T18:19:37.987Z,10.00
2022-12-25T18:24:43.515Z,10.27
2022-12-25T18:29:49.262Z,11.00
2022-12-25T18:35:01.441Z,10.43
2022-12-25T18:40:07.301Z,11.60
2022-12-25T18:45:15.647Z,10.73
2022-12-25T18:50:25.604Z,10.33
2022-12-25T18:55:31.015Z,10.53
2022-12-25T19:00:39.067Z,10.67
2022-12-25T19:05:48.387Z,10.07
2022-12-25T19:10:55.346Z,10.43
2022-12-25T19:16:03.188Z,9.63
2022-12-25T19:21:11.939Z,10.37
2022-12-25T19:26:19.767Z,11.07
2022-12-25T19:31:25.307Z,9.77
2022-12-25T19:36:40.951Z,9.90
2022-12-25T19:41:46.174Z,10.80
2022-12-25T19:46:52.521Z,10.03
2022-12-25T19:52:02.612Z,9.83
2022-12-25T19:57:08.570Z,9.40
2022-12-25T20:02:15.267Z,9.73
2022-12-25T20:07:24.408Z,8.67
2022-12-25T20:12:31.983Z,9.37
2022-12-25T20:17:36.922Z,9.30
2022-12-25T20:22:44.471Z,9.70
2022-12-25T20:27:49.684Z,10.10
2022-12-25T20:32:55.506Z,9.60
2022-12-25T20:38:05.363Z,10.30
2022-12-25T20:43:11.910Z,10.60
2022-12-25T20:48:17.391Z,10.07
2022-12-25T20:53:24.929Z,9.53
2022-12-25T20:58:31.447Z,10.57
2022-12-25T21:03:36.792Z,10.43
2022-12-25T21:08:44.539Z,10.53
2022-12-25T21:13:49.643Z,10.67
2022-12-25T21:18:56.205Z,11.50
2022-12-25T21:24:04.221Z,11.03
2022-12-25T21:29:12.867Z,11.13
2022-12-25T21:34:18.077Z,10.10
2022-12-25T21:39:27.023Z,10.87
2022-12-25T21:44:32.441Z,11.03
2022-12-25T21:49:49.847Z,9.77
2022-12-25T21:54:57.513Z,10.27
2022-12-25T22:00:06.789Z,9.90
2022-12-25T22:05:32.122Z,10.37
2022-12-25T22:10:42.855Z,9.70
2022-12-25T22:16:00.260Z,9.67
2022-12-25T22:21:05.873Z,8.90
2022-12-25T22:26:18.781Z,8.87
2022-12-25T22:31:26.384Z,7.83
2022-12-25T22:36:31.906Z,9.50
2022-12-25T22:41:39.410Z,8.57
2022-12-25T22:46:44.448Z,9.83
2022-12-25T22:51:51.249Z,10.20
2022-12-25T22:57:00.410Z,10.50
2022-12-25T23:02:07.696Z,9.10
2022-12-25T23:07:14.662Z,9.17
2022-12-25T23:12:46.370Z,9.30
2022-12-25T23:18:03.924Z,9.87
2022-12-25T23:23:21.267Z,9.37
2022-12-25T23:28:41.036Z,10.13
2022-12-25T23:33:49.332Z,9.17
2022-12-25T23:39:03.046Z,8.77
2022-12-25T23:44:15.657Z,9.30
2022-12-25T23:49:20.661Z,9.23
2022-12-25T23:54:29.956Z,9.50
2022-12-25T23:59:37.783Z,8.40
